sensor_id;sensor_type;location;lat;lon;timestamp;P1;durP1;ratioP1;P2;durP2;ratioP2
21060;SDS011;10689;50.836;3.266;2022-12-07T00:01:15;7.63;;;5.93;;
21060;SDS011;10689;50.836;3.266;2022-12-07T00:03:43;9.70;;;6.60;;
21060;SDS011;10689;50.836;3.266;2022-12-07T00:06:17;9.07;;;6.80;;
21060;SDS011;10689;50.836;3.266;2022-12-07T00:08:51;10.97;;;6.97;;
21060;SDS011;10689;50.836;3.266;2022-12-07T00:15:03;7.87;;;6.33;;
21060;SDS011;10689;50.836;3.266;2022-12-07T00:17:35;6.93;;;5.70;;
21060;SDS011;10689;50.836;3.266;2022-12-07T00:20:04;8.60;;;5.43;;
21060;SDS011;10689;50.836;3.266;2022-12-07T00:22:33;9.07;;;5.83;;
21060;SDS011;10689;50.836;3.266;2022-12-07T00:25:31;8.63;;;5.40;;
21060;SDS011;10689;50.836;3.266;2022-12-07T00:28:02;9.07;;;5.33;;
21060;SDS011;10689;50.836;3.266;2022-12-07T00:30:37;7.03;;;5.33;;
21060;SDS011;10689;50.836;3.266;2022-12-07T00:33:39;6.37;;;5.60;;
21060;SDS011;10689;50.836;3.266;2022-12-07T00:36:10;5.77;;;4.57;;
21060;SDS011;10689;50.836;3.266;2022-12-07T00:38:40;10.93;;;5.87;;
21060;SDS011;10689;50.836;3.266;2022-12-07T00:41:34;8.80;;;5.80;;
21060;SDS011;10689;50.836;3.266;2022-12-07T00:44:01;5.90;;;4.83;;
21060;SDS011;10689;50.836;3.266;2022-12-07T00:46:28;7.40;;;4.90;;
21060;SDS011;10689;50.836;3.266;2022-12-07T00:49:03;8.17;;;5.60;;
21060;SDS011;10689;50.836;3.266;2022-12-07T00:51:31;9.77;;;5.17;;
21060;SDS011;10689;50.836;3.266;2022-12-07T00:54:05;7.97;;;5.07;;
21060;SDS011;10689;50.836;3.266;2022-12-07T00:56:42;6.73;;;5.33;;
21060;SDS011;10689;50.836;3.266;2022-12-07T00:59:13;8.93;;;5.00;;
21060;SDS011;10689;50.836;3.266;2022-12-07T01:01:40;5.23;;;4.47;;
21060;SDS011;10689;50.836;3.266;2022-12-07T01:07:34;8.07;;;4.53;;
21060;SDS011;10689;50.836;3.266;2022-12-07T01:10:04;6.50;;;5.20;;
21060;SDS011;10689;50.836;3.266;2022-12-07T01:12:34;10.20;;;5.83;;
21060;SDS011;10689;50.836;3.266;2022-12-07T01:15:05;9.90;;;5.67;;
21060;SDS011;10689;50.836;3.266;2022-12-07T01:17:32;5.13;;;4.57;;
21060;SDS011;10689;50.836;3.266;2022-12-07T01:19:58;5.83;;;4.90;;
21060;SDS011;10689;50.836;3.266;2022-12-07T01:22:43;8.70;;;5.13;;
21060;SDS011;10689;50.836;3.266;2022-12-07T01:25:24;8.47;;;5.00;;
21060;SDS011;10689;50.836;3.266;2022-12-07T01:27:56;6.07;;;4.70;;
21060;SDS011;10689;50.836;3.266;2022-12-07T01:30:45;5.97;;;4.90;;
21060;SDS011;10689;50.836;3.266;2022-12-07T01:33:24;7.13;;;5.30;;
21060;SDS011;10689;50.836;3.266;2022-12-07T01:36:36;9.80;;;5.67;;
21060;SDS011;10689;50.836;3.266;2022-12-07T01:42:17;6.13;;;5.10;;
21060;SDS011;10689;50.836;3.266;2022-12-07T01:47:52;7.73;;;5.03;;
21060;SDS011;10689;50.836;3.266;2022-12-07T01:50:31;9.03;;;4.97;;
21060;SDS011;10689;50.836;3.266;2022-12-07T01:53:13;6.87;;;4.50;;
21060;SDS011;10689;50.836;3.266;2022-12-07T01:55:59;7.37;;;4.57;;
21060;SDS011;10689;50.836;3.266;2022-12-07T01:58:25;7.33;;;4.37;;
21060;SDS011;10689;50.836;3.266;2022-12-07T02:01:05;7.80;;;3.90;;
21060;SDS011;10689;50.836;3.266;2022-12-07T02:03:36;6.37;;;4.97;;
21060;SDS011;10689;50.836;3.266;2022-12-07T02:06:12;7.23;;;4.50;;
21060;SDS011;10689;50.836;3.266;2022-12-07T02:08:58;6.33;;;3.87;;
21060;SDS011;10689;50.836;3.266;2022-12-07T02:11:45;6.60;;;4.10;;
21060;SDS011;10689;50.836;3.266;2022-12-07T02:17:36;6.43;;;4.03;;
21060;SDS011;10689;50.836;3.266;2022-12-07T02:21:50;4.57;;;4.03;;
21060;SDS011;10689;50.836;3.266;2022-12-07T02:34:05;6.53;;;3.30;;
21060;SDS011;10689;50.836;3.266;2022-12-07T02:43:10;7.27;;;4.03;;
21060;SDS011;10689;50.836;3.266;2022-12-07T02:45:38;5.10;;;3.63;;
21060;SDS011;10689;50.836;3.266;2022-12-07T02:48:05;7.33;;;3.53;;
21060;SDS011;10689;50.836;3.266;2022-12-07T02:50:52;8.97;;;4.60;;
21060;SDS011;10689;50.836;3.266;2022-12-07T02:53:38;9.57;;;4.03;;
21060;SDS011;10689;50.836;3.266;2022-12-07T02:56:27;5.43;;;3.60;;
21060;SDS011;10689;50.836;3.266;2022-12-07T02:59:34;8.60;;;5.37;;
21060;SDS011;10689;50.836;3.266;2022-12-07T03:11:51;5.60;;;3.23;;
21060;SDS011;10689;50.836;3.266;2022-12-07T03:18:15;9.90;;;3.50;;
21060;SDS011;10689;50.836;3.266;2022-12-07T03:21:14;6.47;;;4.10;;
21060;SDS011;10689;50.836;3.266;2022-12-07T03:23:45;8.23;;;3.40;;
21060;SDS011;10689;50.836;3.266;2022-12-07T03:30:12;5.87;;;3.13;;
21060;SDS011;10689;50.836;3.266;2022-12-07T03:33:16;9.47;;;3.60;;
21060;SDS011;10689;50.836;3.266;2022-12-07T03:41:56;7.53;;;3.67;;
21060;SDS011;10689;50.836;3.266;2022-12-07T03:44:24;7.33;;;3.47;;
21060;SDS011;10689;50.836;3.266;2022-12-07T03:56:41;4.73;;;3.57;;
21060;SDS011;10689;50.836;3.266;2022-12-07T03:59:32;5.23;;;3.57;;
21060;SDS011;10689;50.836;3.266;2022-12-07T04:02:06;7.03;;;3.20;;
21060;SDS011;10689;50.836;3.266;2022-12-07T04:04:40;7.53;;;3.97;;
21060;SDS011;10689;50.836;3.266;2022-12-07T04:07:07;9.23;;;4.17;;
21060;SDS011;10689;50.836;3.266;2022-12-07T04:09:33;7.77;;;3.10;;
21060;SDS011;10689;50.836;3.266;2022-12-07T04:12:43;6.33;;;3.97;;
21060;SDS011;10689;50.836;3.266;2022-12-07T04:15:15;6.57;;;4.43;;
21060;SDS011;10689;50.836;3.266;2022-12-07T04:17:49;7.50;;;4.17;;
21060;SDS011;10689;50.836;3.266;2022-12-07T04:20:45;7.37;;;4.00;;
21060;SDS011;10689;50.836;3.266;2022-12-07T04:23:17;6.80;;;4.50;;
21060;SDS011;10689;50.836;3.266;2022-12-07T04:25:50;7.27;;;3.57;;
21060;SDS011;10689;50.836;3.266;2022-12-07T04:28:26;7.57;;;3.90;;
21060;SDS011;10689;50.836;3.266;2022-12-07T04:30:54;5.20;;;3.90;;
21060;SDS011;10689;50.836;3.266;2022-12-07T04:33:33;5.47;;;3.93;;
21060;SDS011;10689;50.836;3.266;2022-12-07T04:36:04;7.50;;;3.53;;
21060;SDS011;10689;50.836;3.266;2022-12-07T04:38:32;5.93;;;4.03;;
21060;SDS011;10689;50.836;3.266;2022-12-07T04:40:59;5.03;;;3.87;;
21060;SDS011;10689;50.836;3.266;2022-12-07T04:43:38;7.27;;;3.93;;
21060;SDS011;10689;50.836;3.266;2022-12-07T04:46:12;13.20;;;5.00;;
21060;SDS011;10689;50.836;3.266;2022-12-07T04:48:51;15.57;;;5.50;;
21060;SDS011;10689;50.836;3.266;2022-12-07T04:51:20;8.07;;;5.13;;
21060;SDS011;10689;50.836;3.266;2022-12-07T04:54:04;7.47;;;5.07;;
21060;SDS011;10689;50.836;3.266;2022-12-07T04:56:42;8.40;;;5.47;;
21060;SDS011;10689;50.836;3.266;2022-12-07T04:59:09;9.10;;;5.27;;
21060;SDS011;10689;50.836;3.266;2022-12-07T05:01:43;9.03;;;5.20;;
21060;SDS011;10689;50.836;3.266;2022-12-07T05:04:09;12.00;;;4.93;;
21060;SDS011;10689;50.836;3.266;2022-12-07T05:06:44;9.87;;;5.27;;
21060;SDS011;10689;50.836;3.266;2022-12-07T05:09:10;10.23;;;4.13;;
21060;SDS011;10689;50.836;3.266;2022-12-07T05:12:25;9.77;;;5.57;;
21060;SDS011;10689;50.836;3.266;2022-12-07T05:15:13;8.17;;;5.27;;
21060;SDS011;10689;50.836;3.266;2022-12-07T05:17:57;8.30;;;4.70;;
21060;SDS011;10689;50.836;3.266;2022-12-07T05:20:49;8.93;;;4.97;;
21060;SDS011;10689;50.836;3.266;2022-12-07T05:23:24;10.40;;;4.80;;
21060;SDS011;10689;50.836;3.266;2022-12-07T05:25:56;8.27;;;5.30;;
21060;SDS011;10689;50.836;3.266;2022-12-07T05:28:41;10.13;;;4.67;;
21060;SDS011;10689;50.836;3.266;2022-12-07T05:31:33;8.77;;;4.60;;
21060;SDS011;10689;50.836;3.266;2022-12-07T05:34:07;7.00;;;4.67;;
21060;SDS011;10689;50.836;3.266;2022-12-07T05:40:07;12.17;;;4.67;;
21060;SDS011;10689;50.836;3.266;2022-12-07T05:42:37;7.63;;;4.83;;
21060;SDS011;10689;50.836;3.266;2022-12-07T05:45:12;10.30;;;4.87;;
21060;SDS011;10689;50.836;3.266;2022-12-07T05:48:14;35.13;;;5.07;;
21060;SDS011;10689;50.836;3.266;2022-12-07T05:50:55;9.70;;;5.77;;
21060;SDS011;10689;50.836;3.266;2022-12-07T05:53:24;6.80;;;4.60;;
21060;SDS011;10689;50.836;3.266;2022-12-07T05:55:52;12.30;;;5.37;;
21060;SDS011;10689;50.836;3.266;2022-12-07T05:58:29;7.77;;;4.77;;
21060;SDS011;10689;50.836;3.266;2022-12-07T06:01:13;8.97;;;5.17;;
21060;SDS011;10689;50.836;3.266;2022-12-07T06:03:48;8.63;;;4.97;;
21060;SDS011;10689;50.836;3.266;2022-12-07T06:06:19;8.13;;;4.80;;
21060;SDS011;10689;50.836;3.266;2022-12-07T06:14:49;11.07;;;5.67;;
21060;SDS011;10689;50.836;3.266;2022-12-07T06:20:22;11.03;;;5.40;;
21060;SDS011;10689;50.836;3.266;2022-12-07T06:23:08;9.93;;;4.50;;
21060;SDS011;10689;50.836;3.266;2022-12-07T06:25:45;7.70;;;4.33;;
21060;SDS011;10689;50.836;3.266;2022-12-07T06:28:40;7.37;;;4.63;;
21060;SDS011;10689;50.836;3.266;2022-12-07T06:31:06;9.07;;;4.30;;
21060;SDS011;10689;50.836;3.266;2022-12-07T06:33:32;11.67;;;5.10;;
21060;SDS011;10689;50.836;3.266;2022-12-07T06:39:24;7.53;;;4.80;;
21060;SDS011;10689;50.836;3.266;2022-12-07T06:42:06;6.97;;;4.13;;
21060;SDS011;10689;50.836;3.266;2022-12-07T06:45:02;5.80;;;3.93;;
21060;SDS011;10689;50.836;3.266;2022-12-07T06:47:30;7.67;;;4.03;;
21060;SDS011;10689;50.836;3.266;2022-12-07T06:49:59;6.53;;;4.33;;
21060;SDS011;10689;50.836;3.266;2022-12-07T06:52:33;6.50;;;4.13;;
21060;SDS011;10689;50.836;3.266;2022-12-07T06:54:59;7.70;;;4.63;;
21060;SDS011;10689;50.836;3.266;2022-12-07T06:57:43;16.17;;;5.87;;
21060;SDS011;10689;50.836;3.266;2022-12-07T07:00:30;7.60;;;4.80;;
21060;SDS011;10689;50.836;3.266;2022-12-07T07:03:34;10.40;;;5.60;;
21060;SDS011;10689;50.836;3.266;2022-12-07T07:08:49;9.40;;;4.57;;
21060;SDS011;10689;50.836;3.266;2022-12-07T07:11:19;7.47;;;4.43;;
21060;SDS011;10689;50.836;3.266;2022-12-07T07:13:50;6.37;;;4.57;;
21060;SDS011;10689;50.836;3.266;2022-12-07T07:16:31;6.03;;;4.17;;
21060;SDS011;10689;50.836;3.266;2022-12-07T07:19:12;10.10;;;4.83;;
21060;SDS011;10689;50.836;3.266;2022-12-07T07:22:11;6.43;;;4.07;;
21060;SDS011;10689;50.836;3.266;2022-12-07T07:24:56;8.00;;;3.83;;
21060;SDS011;10689;50.836;3.266;2022-12-07T07:27:27;8.20;;;4.70;;
21060;SDS011;10689;50.836;3.266;2022-12-07T07:29:55;5.37;;;4.13;;
21060;SDS011;10689;50.836;3.266;2022-12-07T07:32:35;8.37;;;4.50;;
21060;SDS011;10689;50.836;3.266;2022-12-07T07:35:06;5.50;;;4.30;;
21060;SDS011;10689;50.836;3.266;2022-12-07T07:37:33;8.73;;;4.60;;
21060;SDS011;10689;50.836;3.266;2022-12-07T07:40:02;6.97;;;3.60;;
21060;SDS011;10689;50.836;3.266;2022-12-07T07:42:40;8.13;;;4.23;;
21060;SDS011;10689;50.836;3.266;2022-12-07T07:45:06;7.67;;;4.63;;
21060;SDS011;10689;50.836;3.266;2022-12-07T07:47:35;6.17;;;3.67;;
21060;SDS011;10689;50.836;3.266;2022-12-07T07:50:06;12.23;;;4.33;;
21060;SDS011;10689;50.836;3.266;2022-12-07T07:55:50;17.97;;;4.20;;
21060;SDS011;10689;50.836;3.266;2022-12-07T07:58:25;6.43;;;4.43;;
21060;SDS011;10689;50.836;3.266;2022-12-07T08:01:03;8.30;;;4.03;;
21060;SDS011;10689;50.836;3.266;2022-12-07T08:03:42;14.20;;;4.33;;
21060;SDS011;10689;50.836;3.266;2022-12-07T08:08:54;12.47;;;4.40;;
21060;SDS011;10689;50.836;3.266;2022-12-07T08:11:26;10.47;;;4.07;;
21060;SDS011;10689;50.836;3.266;2022-12-07T08:14:19;7.30;;;4.37;;
21060;SDS011;10689;50.836;3.266;2022-12-07T08:19:45;6.63;;;4.17;;
21060;SDS011;10689;50.836;3.266;2022-12-07T08:22:28;7.30;;;3.90;;
21060;SDS011;10689;50.836;3.266;2022-12-07T08:24:57;6.07;;;4.07;;
21060;SDS011;10689;50.836;3.266;2022-12-07T08:27:26;5.27;;;3.77;;
21060;SDS011;10689;50.836;3.266;2022-12-07T08:29:57;11.90;;;5.50;;
21060;SDS011;10689;50.836;3.266;2022-12-07T08:32:35;7.73;;;4.73;;
21060;SDS011;10689;50.836;3.266;2022-12-07T08:35:12;13.60;;;4.70;;
21060;SDS011;10689;50.836;3.266;2022-12-07T08:37:41;8.87;;;4.47;;
21060;SDS011;10689;50.836;3.266;2022-12-07T08:40:27;8.90;;;4.07;;
21060;SDS011;10689;50.836;3.266;2022-12-07T08:42:56;5.57;;;4.00;;
21060;SDS011;10689;50.836;3.266;2022-12-07T08:51:49;10.33;;;4.60;;
21060;SDS011;10689;50.836;3.266;2022-12-07T08:54:16;5.73;;;4.17;;
21060;SDS011;10689;50.836;3.266;2022-12-07T08:56:50;8.77;;;5.67;;
21060;SDS011;10689;50.836;3.266;2022-12-07T08:59:19;6.73;;;4.27;;
21060;SDS011;10689;50.836;3.266;2022-12-07T09:01:46;8.17;;;5.27;;
21060;SDS011;10689;50.836;3.266;2022-12-07T09:04:11;7.87;;;3.43;;
21060;SDS011;10689;50.836;3.266;2022-12-07T09:06:37;8.63;;;3.90;;
21060;SDS011;10689;50.836;3.266;2022-12-07T09:09:06;8.93;;;3.73;;
21060;SDS011;10689;50.836;3.266;2022-12-07T09:11:33;6.27;;;3.87;;
21060;SDS011;10689;50.836;3.266;2022-12-07T09:13:59;7.60;;;4.07;;
21060;SDS011;10689;50.836;3.266;2022-12-07T09:16:24;6.37;;;3.67;;
21060;SDS011;10689;50.836;3.266;2022-12-07T09:18:57;6.97;;;3.40;;
21060;SDS011;10689;50.836;3.266;2022-12-07T09:21:29;7.00;;;3.47;;
21060;SDS011;10689;50.836;3.266;2022-12-07T09:23:57;10.47;;;4.23;;
21060;SDS011;10689;50.836;3.266;2022-12-07T09:26:29;5.37;;;3.30;;
21060;SDS011;10689;50.836;3.266;2022-12-07T09:28:55;5.70;;;3.80;;
21060;SDS011;10689;50.836;3.266;2022-12-07T09:31:21;5.93;;;3.90;;
21060;SDS011;10689;50.836;3.266;2022-12-07T09:33:55;8.80;;;3.73;;
21060;SDS011;10689;50.836;3.266;2022-12-07T09:36:24;6.43;;;2.87;;
21060;SDS011;10689;50.836;3.266;2022-12-07T09:38:51;5.73;;;2.90;;
21060;SDS011;10689;50.836;3.266;2022-12-07T09:41:16;6.43;;;3.40;;
21060;SDS011;10689;50.836;3.266;2022-12-07T09:43:42;4.47;;;2.90;;
21060;SDS011;10689;50.836;3.266;2022-12-07T09:46:13;4.40;;;2.63;;
21060;SDS011;10689;50.836;3.266;2022-12-07T09:48:49;7.07;;;3.03;;
21060;SDS011;10689;50.836;3.266;2022-12-07T09:51:26;7.90;;;3.33;;
21060;SDS011;10689;50.836;3.266;2022-12-07T09:53:52;7.07;;;3.57;;
21060;SDS011;10689;50.836;3.266;2022-12-07T09:56:24;4.73;;;2.73;;
21060;SDS011;10689;50.836;3.266;2022-12-07T09:59:00;4.70;;;3.10;;
21060;SDS011;10689;50.836;3.266;2022-12-07T10:01:38;5.67;;;2.90;;
21060;SDS011;10689;50.836;3.266;2022-12-07T10:04:24;4.70;;;3.13;;
21060;SDS011;10689;50.836;3.266;2022-12-07T10:06:54;2.73;;;2.40;;
21060;SDS011;10689;50.836;3.266;2022-12-07T10:09:20;3.37;;;2.33;;
21060;SDS011;10689;50.836;3.266;2022-12-07T10:15:01;6.47;;;2.83;;
21060;SDS011;10689;50.836;3.266;2022-12-07T10:21:14;6.53;;;2.83;;
21060;SDS011;10689;50.836;3.266;2022-12-07T10:24:03;7.90;;;3.13;;
21060;SDS011;10689;50.836;3.266;2022-12-07T10:26:52;7.67;;;2.60;;
21060;SDS011;10689;50.836;3.266;2022-12-07T10:29:37;3.67;;;2.10;;
21060;SDS011;10689;50.836;3.266;2022-12-07T10:37:49;4.90;;;2.63;;
21060;SDS011;10689;50.836;3.266;2022-12-07T10:40:35;5.23;;;3.00;;
21060;SDS011;10689;50.836;3.266;2022-12-07T10:51:52;6.20;;;3.17;;
21060;SDS011;10689;50.836;3.266;2022-12-07T10:55:04;7.60;;;2.53;;
21060;SDS011;10689;50.836;3.266;2022-12-07T10:57:47;6.20;;;3.10;;
21060;SDS011;10689;50.836;3.266;2022-12-07T11:01:04;6.17;;;2.87;;
21060;SDS011;10689;50.836;3.266;2022-12-07T11:03:46;4.40;;;2.70;;
21060;SDS011;10689;50.836;3.266;2022-12-07T11:31:38;5.40;;;2.27;;
21060;SDS011;10689;50.836;3.266;2022-12-07T11:37:09;4.82;;;2.53;;
21060;SDS011;10689;50.836;3.266;2022-12-07T11:39:44;4.63;;;2.23;;
21060;SDS011;10689;50.836;3.266;2022-12-07T11:42:27;7.00;;;1.87;;
21060;SDS011;10689;50.836;3.266;2022-12-07T11:45:15;5.20;;;2.03;;
21060;SDS011;10689;50.836;3.266;2022-12-07T11:48:04;6.67;;;3.70;;
21060;SDS011;10689;50.836;3.266;2022-12-07T11:50:41;4.43;;;1.90;;
21060;SDS011;10689;50.836;3.266;2022-12-07T11:55:57;3.43;;;1.70;;
21060;SDS011;10689;50.836;3.266;2022-12-07T11:58:47;3.10;;;1.97;;
21060;SDS011;10689;50.836;3.266;2022-12-07T12:03:46;4.30;;;1.87;;
21060;SDS011;10689;50.836;3.266;2022-12-07T12:06:15;3.37;;;1.73;;
21060;SDS011;10689;50.836;3.266;2022-12-07T12:09:00;4.83;;;2.63;;
21060;SDS011;10689;50.836;3.266;2022-12-07T12:17:11;2.27;;;1.80;;
21060;SDS011;10689;50.836;3.266;2022-12-07T12:26:01;2.00;;;1.20;;
21060;SDS011;10689;50.836;3.266;2022-12-07T12:36:19;9.60;;;4.07;;
21060;SDS011;10689;50.836;3.266;2022-12-07T12:39:08;2.67;;;1.20;;
21060;SDS011;10689;50.836;3.266;2022-12-07T12:47:00;1.77;;;1.63;;
21060;SDS011;10689;50.836;3.266;2022-12-07T12:50:28;3.97;;;1.70;;
21060;SDS011;10689;50.836;3.266;2022-12-07T12:52:50;2.53;;;1.43;;
21060;SDS011;10689;50.836;3.266;2022-12-07T12:55:20;3.57;;;1.93;;
21060;SDS011;10689;50.836;3.266;2022-12-07T12:58:21;1.93;;;1.47;;
21060;SDS011;10689;50.836;3.266;2022-12-07T13:03:57;6.00;;;1.90;;
21060;SDS011;10689;50.836;3.266;2022-12-07T13:08:52;8.13;;;2.30;;
21060;SDS011;10689;50.836;3.266;2022-12-07T13:20:07;3.13;;;1.73;;
21060;SDS011;10689;50.836;3.266;2022-12-07T13:28:02;2.40;;;1.67;;
21060;SDS011;10689;50.836;3.266;2022-12-07T13:30:53;1.83;;;1.30;;
21060;SDS011;10689;50.836;3.266;2022-12-07T13:33:35;2.87;;;1.80;;
21060;SDS011;10689;50.836;3.266;2022-12-07T13:36:01;7.93;;;2.93;;
21060;SDS011;10689;50.836;3.266;2022-12-07T13:38:31;6.60;;;2.27;;
21060;SDS011;10689;50.836;3.266;2022-12-07T13:43:59;7.33;;;3.20;;
21060;SDS011;10689;50.836;3.266;2022-12-07T13:46:32;3.70;;;2.07;;
21060;SDS011;10689;50.836;3.266;2022-12-07T13:49:21;4.33;;;1.90;;
21060;SDS011;10689;50.836;3.266;2022-12-07T13:51:49;3.27;;;1.80;;
21060;SDS011;10689;50.836;3.266;2022-12-07T13:54:17;2.60;;;1.90;;
21060;SDS011;10689;50.836;3.266;2022-12-07T13:56:49;2.17;;;1.70;;
21060;SDS011;10689;50.836;3.266;2022-12-07T13:59:18;5.83;;;2.57;;
21060;SDS011;10689;50.836;3.266;2022-12-07T14:01:49;3.80;;;2.10;;
21060;SDS011;10689;50.836;3.266;2022-12-07T14:04:37;3.80;;;1.87;;
21060;SDS011;10689;50.836;3.266;2022-12-07T14:12:52;6.07;;;1.97;;
21060;SDS011;10689;50.836;3.266;2022-12-07T14:15:19;6.77;;;1.60;;
21060;SDS011;10689;50.836;3.266;2022-12-07T14:17:53;1.80;;;1.40;;
21060;SDS011;10689;50.836;3.266;2022-12-07T14:20:33;3.53;;;1.37;;
21060;SDS011;10689;50.836;3.266;2022-12-07T14:23:19;8.73;;;1.50;;
21060;SDS011;10689;50.836;3.266;2022-12-07T14:25:51;2.20;;;1.20;;
21060;SDS011;10689;50.836;3.266;2022-12-07T14:28:32;1.70;;;1.00;;
21060;SDS011;10689;50.836;3.266;2022-12-07T14:31:00;2.17;;;1.23;;
21060;SDS011;10689;50.836;3.266;2022-12-07T14:33:26;2.53;;;1.03;;
21060;SDS011;10689;50.836;3.266;2022-12-07T14:35:55;1.37;;;1.27;;
21060;SDS011;10689;50.836;3.266;2022-12-07T14:38:24;1.80;;;1.03;;
21060;SDS011;10689;50.836;3.266;2022-12-07T14:40:53;3.70;;;1.00;;
21060;SDS011;10689;50.836;3.266;2022-12-07T14:43:40;1.03;;;0.90;;
21060;SDS011;10689;50.836;3.266;2022-12-07T14:46:06;3.70;;;1.50;;
21060;SDS011;10689;50.836;3.266;2022-12-07T14:48:36;1.80;;;1.47;;
21060;SDS011;10689;50.836;3.266;2022-12-07T14:51:02;3.30;;;1.83;;
21060;SDS011;10689;50.836;3.266;2022-12-07T14:53:33;2.60;;;1.83;;
21060;SDS011;10689;50.836;3.266;2022-12-07T14:56:02;5.23;;;2.17;;
21060;SDS011;10689;50.836;3.266;2022-12-07T14:58:33;11.60;;;3.83;;
21060;SDS011;10689;50.836;3.266;2022-12-07T15:00:59;6.97;;;3.27;;
21060;SDS011;10689;50.836;3.266;2022-12-07T15:03:28;3.43;;;2.57;;
21060;SDS011;10689;50.836;3.266;2022-12-07T15:05:59;5.30;;;3.20;;
21060;SDS011;10689;50.836;3.266;2022-12-07T15:08:25;3.53;;;2.50;;
21060;SDS011;10689;50.836;3.266;2022-12-07T15:10:51;4.73;;;2.77;;
21060;SDS011;10689;50.836;3.266;2022-12-07T15:13:17;4.13;;;2.90;;
21060;SDS011;10689;50.836;3.266;2022-12-07T15:16:02;6.83;;;3.73;;
21060;SDS011;10689;50.836;3.266;2022-12-07T15:18:28;8.13;;;4.50;;
21060;SDS011;10689;50.836;3.266;2022-12-07T15:20:54;6.77;;;4.00;;
21060;SDS011;10689;50.836;3.266;2022-12-07T15:23:20;6.90;;;3.97;;
21060;SDS011;10689;50.836;3.266;2022-12-07T15:25:46;7.77;;;4.27;;
21060;SDS011;10689;50.836;3.266;2022-12-07T15:28:14;4.80;;;4.00;;
21060;SDS011;10689;50.836;3.266;2022-12-07T15:30:41;4.77;;;3.53;;
21060;SDS011;10689;50.836;3.266;2022-12-07T15:33:11;3.27;;;2.60;;
21060;SDS011;10689;50.836;3.266;2022-12-07T15:35:38;9.20;;;4.93;;
21060;SDS011;10689;50.836;3.266;2022-12-07T15:38:08;3.07;;;2.73;;
21060;SDS011;10689;50.836;3.266;2022-12-07T15:40:36;2.50;;;1.73;;
21060;SDS011;10689;50.836;3.266;2022-12-07T15:43:02;4.13;;;3.33;;
21060;SDS011;10689;50.836;3.266;2022-12-07T15:45:29;3.47;;;1.47;;
21060;SDS011;10689;50.836;3.266;2022-12-07T15:47:57;5.60;;;2.33;;
21060;SDS011;10689;50.836;3.266;2022-12-07T15:50:25;1.93;;;1.43;;
21060;SDS011;10689;50.836;3.266;2022-12-07T15:52:56;3.10;;;1.87;;
21060;SDS011;10689;50.836;3.266;2022-12-07T15:55:21;5.60;;;3.10;;
21060;SDS011;10689;50.836;3.266;2022-12-07T15:57:47;8.57;;;4.33;;
21060;SDS011;10689;50.836;3.266;2022-12-07T16:00:14;4.70;;;3.50;;
21060;SDS011;10689;50.836;3.266;2022-12-07T16:02:46;5.47;;;3.87;;
21060;SDS011;10689;50.836;3.266;2022-12-07T16:05:11;7.13;;;4.23;;
21060;SDS011;10689;50.836;3.266;2022-12-07T16:07:37;5.43;;;3.60;;
21060;SDS011;10689;50.836;3.266;2022-12-07T16:10:03;3.87;;;3.00;;
21060;SDS011;10689;50.836;3.266;2022-12-07T16:12:32;9.63;;;4.30;;
21060;SDS011;10689;50.836;3.266;2022-12-07T16:14:58;5.90;;;4.17;;
21060;SDS011;10689;50.836;3.266;2022-12-07T16:17:24;6.53;;;4.00;;
21060;SDS011;10689;50.836;3.266;2022-12-07T16:19:53;6.07;;;4.00;;
21060;SDS011;10689;50.836;3.266;2022-12-07T16:22:21;9.13;;;4.87;;
21060;SDS011;10689;50.836;3.266;2022-12-07T16:24:49;7.10;;;4.20;;
21060;SDS011;10689;50.836;3.266;2022-12-07T16:27:15;5.63;;;3.97;;
21060;SDS011;10689;50.836;3.266;2022-12-07T16:29:50;9.07;;;4.87;;
21060;SDS011;10689;50.836;3.266;2022-12-07T16:32:16;5.63;;;3.93;;
21060;SDS011;10689;50.836;3.266;2022-12-07T16:34:42;8.73;;;5.30;;
21060;SDS011;10689;50.836;3.266;2022-12-07T16:37:08;7.07;;;5.03;;
21060;SDS011;10689;50.836;3.266;2022-12-07T16:39:34;8.33;;;4.60;;
21060;SDS011;10689;50.836;3.266;2022-12-07T16:42:02;7.17;;;5.13;;
21060;SDS011;10689;50.836;3.266;2022-12-07T16:44:28;7.87;;;4.00;;
21060;SDS011;10689;50.836;3.266;2022-12-07T16:46:56;13.83;;;4.37;;
21060;SDS011;10689;50.836;3.266;2022-12-07T16:49:22;5.07;;;4.00;;
21060;SDS011;10689;50.836;3.266;2022-12-07T16:51:49;6.73;;;2.73;;
21060;SDS011;10689;50.836;3.266;2022-12-07T16:54:15;4.30;;;2.70;;
21060;SDS011;10689;50.836;3.266;2022-12-07T16:56:41;4.00;;;2.80;;
21060;SDS011;10689;50.836;3.266;2022-12-07T16:59:07;5.27;;;2.97;;
21060;SDS011;10689;50.836;3.266;2022-12-07T17:01:35;4.17;;;3.77;;
21060;SDS011;10689;50.836;3.266;2022-12-07T17:04:02;8.00;;;3.20;;
21060;SDS011;10689;50.836;3.266;2022-12-07T17:06:29;7.07;;;3.40;;
21060;SDS011;10689;50.836;3.266;2022-12-07T17:08:57;7.23;;;3.47;;
21060;SDS011;10689;50.836;3.266;2022-12-07T17:11:26;10.50;;;4.20;;
21060;SDS011;10689;50.836;3.266;2022-12-07T17:13:54;6.50;;;3.30;;
21060;SDS011;10689;50.836;3.266;2022-12-07T17:16:38;7.43;;;4.27;;
21060;SDS011;10689;50.836;3.266;2022-12-07T17:19:08;8.90;;;6.30;;
21060;SDS011;10689;50.836;3.266;2022-12-07T17:21:38;6.10;;;4.80;;
21060;SDS011;10689;50.836;3.266;2022-12-07T17:24:07;6.78;;;5.00;;
21060;SDS011;10689;50.836;3.266;2022-12-07T17:26:35;9.83;;;5.00;;
21060;SDS011;10689;50.836;3.266;2022-12-07T17:29:03;8.73;;;4.73;;
21060;SDS011;10689;50.836;3.266;2022-12-07T17:31:30;6.97;;;4.57;;
21060;SDS011;10689;50.836;3.266;2022-12-07T17:33:57;11.30;;;5.40;;
21060;SDS011;10689;50.836;3.266;2022-12-07T17:36:25;9.73;;;5.20;;
21060;SDS011;10689;50.836;3.266;2022-12-07T17:38:53;5.87;;;5.17;;
21060;SDS011;10689;50.836;3.266;2022-12-07T17:41:23;6.83;;;4.47;;
21060;SDS011;10689;50.836;3.266;2022-12-07T17:44:15;6.33;;;4.50;;
21060;SDS011;10689;50.836;3.266;2022-12-07T17:46:43;9.83;;;5.57;;
21060;SDS011;10689;50.836;3.266;2022-12-07T17:49:12;6.43;;;4.20;;
21060;SDS011;10689;50.836;3.266;2022-12-07T17:51:40;8.27;;;5.23;;
21060;SDS011;10689;50.836;3.266;2022-12-07T17:54:27;5.70;;;4.20;;
21060;SDS011;10689;50.836;3.266;2022-12-07T17:56:53;5.67;;;4.77;;
21060;SDS011;10689;50.836;3.266;2022-12-07T17:59:19;6.97;;;5.07;;
21060;SDS011;10689;50.836;3.266;2022-12-07T18:01:48;7.30;;;5.37;;
21060;SDS011;10689;50.836;3.266;2022-12-07T18:04:26;10.40;;;5.57;;
21060;SDS011;10689;50.836;3.266;2022-12-07T18:07:00;8.13;;;5.60;;
21060;SDS011;10689;50.836;3.266;2022-12-07T18:09:25;8.90;;;5.70;;
21060;SDS011;10689;50.836;3.266;2022-12-07T18:11:52;8.77;;;6.30;;
21060;SDS011;10689;50.836;3.266;2022-12-07T18:14:18;15.03;;;7.00;;
21060;SDS011;10689;50.836;3.266;2022-12-07T18:16:44;9.40;;;6.67;;
21060;SDS011;10689;50.836;3.266;2022-12-07T18:19:16;8.50;;;6.03;;
21060;SDS011;10689;50.836;3.266;2022-12-07T18:21:42;11.00;;;6.90;;
21060;SDS011;10689;50.836;3.266;2022-12-07T18:24:09;9.10;;;6.97;;
21060;SDS011;10689;50.836;3.266;2022-12-07T18:26:36;9.37;;;6.63;;
21060;SDS011;10689;50.836;3.266;2022-12-07T18:29:04;13.60;;;8.50;;
21060;SDS011;10689;50.836;3.266;2022-12-07T18:31:37;14.53;;;10.10;;
21060;SDS011;10689;50.836;3.266;2022-12-07T18:34:04;12.67;;;8.07;;
21060;SDS011;10689;50.836;3.266;2022-12-07T18:36:38;9.10;;;7.03;;
21060;SDS011;10689;50.836;3.266;2022-12-07T18:39:10;13.83;;;7.80;;
21060;SDS011;10689;50.836;3.266;2022-12-07T18:41:37;11.87;;;8.33;;
21060;SDS011;10689;50.836;3.266;2022-12-07T18:44:04;14.87;;;8.70;;
21060;SDS011;10689;50.836;3.266;2022-12-07T18:46:30;12.33;;;10.00;;
21060;SDS011;10689;50.836;3.266;2022-12-07T18:48:56;16.33;;;8.80;;
21060;SDS011;10689;50.836;3.266;2022-12-07T18:51:22;12.20;;;8.80;;
21060;SDS011;10689;50.836;3.266;2022-12-07T18:53:49;11.57;;;8.40;;
21060;SDS011;10689;50.836;3.266;2022-12-07T18:56:19;11.23;;;8.23;;